Time;durP1;ratioP1;P1;durP2;ratioP2;P2;SDS_P1;SDS_P2;PMS_P1;PMS_P2;Temp;Humidity;BMP_temperature;BMP_pressure;BME280_temperature;BME280_humidity;BME280_pressure;Samples;Min_cycle;Max_cycle;Signal;HPM_P1;HPM_P2
2022/05/11 00:01:26;;;;;;;3.35;2.90;;;;;;;19.61;46.44;101537.66;5085004;28;20942;-61
2022/05/11 00:03:55;;;;;;;5.38;2.83;;;;;;;19.52;46.65;101533.50;5085746;28;20430;-61
2022/05/11 00:06:22;;;;;;;3.33;2.80;;;;;;;19.52;46.71;101531.66;5087555;28;20433;-64
2022/05/11 00:08:49;;;;;;;3.67;2.77;;;;;;;19.44;46.91;101538.06;5085059;28;20417;-63
2022/05/11 00:11:16;;;;;;;4.53;2.92;;;;;;;19.40;47.10;101534.13;5099254;28;20498;-61
2022/05/11 00:13:45;;;;;;;5.37;3.00;;;;;;;19.43;46.73;101524.84;5084804;28;20418;-64
2022/05/11 00:16:13;;;;;;;3.65;3.00;;;;;;;19.40;46.83;101528.75;5085298;28;20433;-64
2022/05/11 00:18:40;;;;;;;3.65;3.00;;;;;;;19.36;46.93;101522.16;5085057;28;20426;-62
2022/05/11 00:21:08;;;;;;;3.63;2.90;;;;;;;19.37;46.96;101513.03;5085076;28;20983;-63
2022/05/11 00:23:35;;;;;;;3.83;3.10;;;;;;;19.29;47.04;101514.09;5085278;28;20436;-65
2022/05/11 00:26:03;;;;;;;3.60;3.30;;;;;;;19.24;48.27;101521.13;5094548;28;20418;-64
2022/05/11 00:28:30;;;;;;;4.28;3.40;;;;;;;19.17;48.85;101520.31;5084880;28;20915;-64
2022/05/11 00:30:58;;;;;;;3.70;3.30;;;;;;;19.20;48.90;101522.59;5088449;28;20927;-63
2022/05/11 00:33:25;;;;;;;4.27;3.70;;;;;;;19.20;49.41;101512.66;5084561;28;20414;-64
2022/05/11 00:35:53;;;;;;;4.17;3.73;;;;;;;19.20;49.17;101509.16;5100061;28;20433;-64
2022/05/11 00:38:23;;;;;;;5.00;3.63;;;;;;;19.18;48.69;101508.53;5084202;28;20500;-63
2022/05/11 00:40:53;;;;;;;3.75;3.33;;;;;;;19.17;49.04;101521.13;5090883;28;20804;-63
2022/05/11 00:43:28;;;;;;;4.00;3.60;;;;;;;19.12;48.83;101523.59;5085431;28;20427;-63
2022/05/11 00:46:06;;;;;;;3.88;3.50;;;;;;;19.09;48.56;101518.66;5069412;28;20410;-63
2022/05/11 00:51:19;;;;;;;4.38;3.40;;;;;;;19.00;48.75;101515.34;5087897;28;20425;-63
2022/05/11 00:53:53;;;;;;;4.87;3.60;;;;;;;18.98;48.79;101521.94;5096624;28;20425;-62
2022/05/11 00:56:21;;;;;;;4.45;4.05;;;;;;;18.93;49.54;101527.13;5096214;28;20517;-65
2022/05/11 00:58:54;;;;;;;4.55;4.03;;;;;;;18.86;49.42;101519.88;5095253;28;20425;-63
2022/05/11 01:01:22;;;;;;;4.30;3.88;;;;;;;18.81;49.64;101524.19;5099325;28;20420;-63
2022/05/11 01:03:54;;;;;;;4.82;4.00;;;;;;;18.75;49.72;101516.94;5091814;28;20418;-63
2022/05/11 01:06:23;;;;;;;6.50;4.00;;;;;;;18.73;49.32;101523.34;5096527;28;20424;-63
2022/05/11 01:08:51;;;;;;;3.55;3.10;;;;;;;18.68;48.70;101522.31;5085787;28;20421;-64
2022/05/11 01:11:19;;;;;;;3.60;3.10;;;;;;;18.63;48.25;101519.41;5087808;28;20961;-63
2022/05/11 01:13:48;;;;;;;5.35;3.13;;;;;;;18.59;48.02;101515.47;5082860;28;20516;-64
2022/05/11 01:16:14;;;;;;;3.47;3.05;;;;;;;18.52;48.05;101512.75;5088188;28;20432;-63
2022/05/11 01:18:45;;;;;;;3.55;2.95;;;;;;;18.50;47.97;101515.66;5078141;28;20447;-63
2022/05/11 01:21:12;;;;;;;4.13;3.20;;;;;;;18.48;47.78;101509.66;5070536;28;20418;-63
2022/05/11 01:23:46;;;;;;;5.20;3.10;;;;;;;18.45;47.76;101512.75;5070645;28;20444;-63
2022/05/11 01:26:18;;;;;;;4.67;3.10;;;;;;;18.39;47.80;101523.47;5073830;28;20421;-62
2022/05/11 01:28:47;;;;;;;3.35;2.80;;;;;;;18.30;47.95;101517.47;5078948;28;20420;-60
2022/05/11 01:31:16;;;;;;;4.03;2.90;;;;;;;18.28;47.81;101516.84;5069692;28;20418;-62
2022/05/11 01:33:47;;;;;;;3.97;3.10;;;;;;;18.27;47.98;101512.50;5069568;28;20436;-63
2022/05/11 01:36:21;;;;;;;4.60;3.50;;;;;;;18.21;48.24;101521.34;5072590;28;20960;-63
2022/05/11 01:38:50;;;;;;;3.85;3.10;;;;;;;18.15;48.53;101523.81;5077940;28;20942;-65
2022/05/11 01:41:25;;;;;;;4.53;2.97;;;;;;;18.11;48.30;101519.03;5076003;28;20795;-63
2022/05/11 01:43:52;;;;;;;5.10;3.30;;;;;;;18.08;48.54;101520.28;5054088;28;20429;-64
2022/05/11 01:48:55;;;;;;;5.18;3.38;;;;;;;18.01;48.99;101519.41;5073787;28;20415;-63
2022/05/11 01:51:22;;;;;;;3.53;3.22;;;;;;;18.01;49.06;101529.31;5071627;28;20445;-64
2022/05/11 01:53:50;;;;;;;3.40;3.10;;;;;;;18.00;49.24;101527.66;5081150;28;20995;-63
2022/05/11 01:56:23;;;;;;;3.80;3.30;;;;;;;17.99;49.32;101534.03;5072644;28;20497;-63
2022/05/11 01:58:51;;;;;;;3.65;2.95;;;;;;;17.96;49.38;101536.09;5072187;28;20450;-63
2022/05/11 02:01:21;;;;;;;4.07;3.23;;;;;;;17.97;49.34;101536.94;5067507;28;20806;-63
2022/05/11 02:03:49;;;;;;;4.18;3.22;;;;;;;17.93;49.49;101533.84;5069632;28;20934;-63
2022/05/11 02:09:02;;;;;;;3.30;3.00;;;;;;;17.94;49.46;101537.34;5079219;28;20471;-63
2022/05/11 02:11:31;;;;;;;4.40;3.20;;;;;;;17.90;49.52;101531.53;5068724;28;20430;-62
2022/05/11 02:13:58;;;;;;;3.50;3.20;;;;;;;17.88;49.33;101532.75;5082129;28;20415;-62
2022/05/11 02:16:26;;;;;;;3.40;3.10;;;;;;;17.83;49.05;101537.88;5072086;28;20418;-63
2022/05/11 02:18:54;;;;;;;5.20;3.25;;;;;;;17.79;48.88;101534.75;5072817;28;20439;-63
2022/05/11 02:22:02;;;;;;;3.40;3.10;;;;;;;17.76;48.74;101530.59;5121537;27;20469;-64
2022/05/11 02:24:30;;;;;;;4.63;3.00;;;;;;;17.76;48.73;101527.91;5095379;28;20421;-63
2022/05/11 02:27:00;;;;;;;4.32;2.95;;;;;;;17.70;48.87;101523.34;5098852;28;21012;-64
2022/05/11 02:29:28;;;;;;;3.72;2.95;;;;;;;17.68;48.91;101533.47;5088729;28;20433;-63
2022/05/11 02:31:56;;;;;;;3.72;3.10;;;;;;;17.67;48.89;101536.31;5074210;28;20417;-63
2022/05/11 02:37:24;;;;;;;5.22;3.30;;;;;;;17.67;48.93;101528.28;5091449;28;20496;-63
2022/05/11 02:39:51;;;;;;;4.28;3.30;;;;;;;17.63;49.09;101530.53;5092018;28;20416;-65
2022/05/11 02:42:20;;;;;;;4.80;3.38;;;;;;;17.64;49.11;101528.66;5098560;28;20424;-63
2022/05/11 02:44:47;;;;;;;5.20;3.33;;;;;;;17.63;49.16;101525.16;5096648;28;20412;-63
2022/05/11 02:47:15;;;;;;;4.35;3.40;;;;;;;17.65;49.14;101522.28;5090960;28;20414;-64
2022/05/11 02:49:45;;;;;;;4.50;3.65;;;;;;;17.62;49.14;101528.03;5087916;28;20846;-63
2022/05/11 02:52:14;;;;;;;3.97;3.60;;;;;;;17.62;49.33;101525.34;5099197;28;20463;-63
2022/05/11 02:54:46;;;;;;;4.85;3.60;;;;;;;17.61;49.34;101521.00;5093730;28;20961;-63
2022/05/11 02:57:14;;;;;;;5.47;3.50;;;;;;;17.58;49.38;101522.25;5103635;28;20914;-64
2022/05/11 02:59:41;;;;;;;5.57;3.47;;;;;;;17.61;49.23;101526.38;5087992;28;20418;-64
2022/05/11 03:02:09;;;;;;;4.20;3.50;;;;;;;17.60;49.25;101530.09;5099413;28;20422;-61
2022/05/11 03:04:36;;;;;;;5.50;4.03;;;;;;;17.58;49.37;101525.75;5083210;28;20413;-63
2022/05/11 03:07:03;;;;;;;4.40;3.72;;;;;;;17.60;49.33;101527.41;5100888;28;20430;-63
2022/05/11 03:09:32;;;;;;;5.60;3.77;;;;;;;17.58;49.23;101524.94;5101159;28;20419;-64
2022/05/11 03:12:01;;;;;;;6.00;4.18;;;;;;;17.58;49.32;101533.78;5064993;28;20430;-64
2022/05/11 03:14:28;;;;;;;5.10;4.60;;;;;;;17.61;49.36;101534.41;5080067;28;20427;-63
2022/05/11 03:16:55;;;;;;;5.45;3.95;;;;;;;17.62;49.26;101528.03;5095205;28;20433;-63
2022/05/11 03:19:22;;;;;;;7.80;3.97;;;;;;;17.62;49.23;101534.22;5100118;28;20423;-64
2022/05/11 03:21:50;;;;;;;8.73;4.40;;;;;;;17.58;48.96;101533.78;5086633;28;20440;-64
2022/05/11 03:24:18;;;;;;;6.63;4.15;;;;;;;17.56;49.19;101532.34;5097932;28;20422;-63
2022/05/11 03:26:45;;;;;;;6.97;4.20;;;;;;;17.51;49.34;101532.09;5087854;28;20904;-63
2022/05/11 03:29:14;;;;;;;6.97;4.25;;;;;;;17.52;49.08;101531.91;5098433;28;20439;-63
2022/05/11 03:34:36;;;;;;;6.38;4.28;;;;;;;17.56;49.05;101532.34;5086617;28;20445;-63
2022/05/11 03:34:36;;;;;;;5.25;4.13;;;;;;;17.66;48.91;101534.66;5071371;28;20965;-63
2022/05/11 03:37:03;;;;;;;7.47;3.97;;;;;;;17.69;48.77;101537.78;5070505;28;20430;-63
2022/05/11 03:39:31;;;;;;;5.45;4.00;;;;;;;17.77;48.47;101537.63;5081048;28;20450;-62
2022/05/11 03:41:58;;;;;;;5.65;3.70;;;;;;;17.85;48.27;101542.03;5068306;28;20430;-63
2022/05/11 03:44:29;;;;;;;5.93;3.83;;;;;;;17.99;48.09;101548.31;5071368;28;20417;-64
2022/05/11 03:46:57;;;;;;;5.47;4.10;;;;;;;18.11;47.56;101546.72;5068638;28;20476;-63
2022/05/11 03:49:25;;;;;;;9.98;4.28;;;;;;;18.23;47.21;101557.69;5085961;28;20794;-63
2022/05/11 03:51:52;;;;;;;8.25;4.13;;;;;;;18.32;46.99;101556.47;5071227;28;20548;-63
2022/05/11 03:54:19;;;;;;;6.73;3.60;;;;;;;18.47;46.55;101561.69;5057722;28;20924;-62
2022/05/11 03:56:47;;;;;;;6.80;4.07;;;;;;;18.63;45.99;101560.50;5078622;28;20982;-64
2022/05/11 03:59:14;;;;;;;9.48;5.10;;;;;;;18.77;45.68;101566.75;5071002;28;20442;-62
2022/05/11 04:01:45;;;;;;;7.47;4.80;;;;;;;18.99;45.05;101570.09;5070819;28;21550;-63
2022/05/11 04:04:15;;;;;;;6.53;4.30;;;;;;;19.19;44.43;101570.13;5085047;28;20414;-61
2022/05/11 04:06:42;;;;;;;5.78;4.20;;;;;;;19.40;44.06;101566.41;5069099;28;20418;-62
2022/05/11 04:09:09;;;;;;;5.38;4.30;;;;;;;19.54;43.77;101569.91;5080133;28;20440;-63
2022/05/11 04:11:36;;;;;;;5.32;4.32;;;;;;;19.61;43.49;101570.72;5085827;28;20444;-65
2022/05/11 04:14:05;;;;;;;7.47;4.47;;;;;;;19.76;43.20;101569.72;5080075;28;20435;-63
2022/05/11 04:16:32;;;;;;;8.75;4.63;;;;;;;19.96;42.72;101570.47;5074181;28;20421;-65
2022/05/11 04:19:02;;;;;;;10.15;5.90;;;;;;;20.16;42.59;101583.03;5078528;28;20417;-63
2022/05/11 04:21:29;;;;;;;5.97;5.30;;;;;;;20.61;41.71;101583.09;5068310;28;20433;-65
2022/05/11 04:23:56;;;;;;;7.32;5.22;;;;;;;20.93;41.16;101591.19;5077662;28;20512;-63
2022/05/11 04:26:23;;;;;;;6.90;5.68;;;;;;;21.45;40.17;101594.56;5065649;28;20415;-65
2022/05/11 04:28:50;;;;;;;10.00;6.10;;;;;;;21.85;39.32;101593.34;5072617;28;20485;-63
2022/05/11 04:31:17;;;;;;;8.05;5.68;;;;;;;22.14;38.73;101584.50;5083212;28;20417;-65
2022/05/11 04:33:44;;;;;;;11.02;5.63;;;;;;;22.63;38.10;101594.50;5071460;28;20427;-64
2022/05/11 04:36:13;;;;;;;7.83;5.90;;;;;;;23.02;37.13;101589.59;5074312;28;20413;-65
2022/05/11 04:38:42;;;;;;;10.30;6.07;;;;;;;23.32;36.84;101591.41;5080404;28;20423;-63
2022/05/11 04:41:09;;;;;;;9.95;5.43;;;;;;;23.64;36.50;101595.47;5069630;28;20476;-64
2022/05/11 04:43:36;;;;;;;8.02;5.47;;;;;;;24.08;36.24;101599.69;5061229;28;20931;-63
2022/05/11 04:46:03;;;;;;;13.23;5.85;;;;;;;24.59;35.21;101604.25;5057837;28;20421;-66
2022/05/11 04:48:31;;;;;;;7.15;4.80;;;;;;;24.76;34.90;101596.16;5056710;28;20419;-64
2022/05/11 04:51:02;;;;;;;8.07;5.03;;;;;;;25.34;34.29;101596.06;5067570;28;20426;-63
2022/05/11 04:53:31;;;;;;;9.02;4.43;;;;;;;26.02;33.10;101588.66;5064979;28;20424;-62
2022/05/11 04:56:00;;;;;;;8.45;4.57;;;;;;;26.16;33.11;101585.53;5062238;28;20423;-64
2022/05/11 04:58:27;;;;;;;6.80;5.07;;;;;;;26.27;33.33;101571.00;5055998;28;20431;-64
2022/05/11 05:00:55;;;;;;;7.33;5.00;;;;;;;26.70;32.44;101581.00;5054976;28;20993;-64
2022/05/11 05:03:23;;;;;;;5.28;4.70;;;;;;;27.12;32.00;101576.75;5048282;28;20924;-63
2022/05/11 05:05:50;;;;;;;5.32;4.60;;;;;;;27.57;31.40;101571.91;5053655;28;20477;-65
2022/05/11 05:08:17;;;;;;;8.02;4.93;;;;;;;27.94;31.03;101565.56;5053200;28;20930;-63
2022/05/11 05:10:46;;;;;;;11.73;5.32;;;;;;;28.56;29.96;101577.53;5069368;28;21159;-62
2022/05/11 05:13:14;;;;;;;9.77;5.45;;;;;;;28.93;29.03;101576.47;5071379;28;21198;-60
2022/05/11 05:15:42;;;;;;;8.43;5.43;;;;;;;29.27;28.51;101579.47;5056900;28;20434;-67
2022/05/11 05:18:10;;;;;;;11.23;5.00;;;;;;;29.59;28.10;101575.59;5071027;28;20430;-65
2022/05/11 05:20:38;;;;;;;6.90;4.78;;;;;;;29.90;27.52;101576.31;5062020;28;20422;-64
2022/05/11 05:23:08;;;;;;;5.88;4.50;;;;;;;30.29;27.21;101577.53;5065199;28;20793;-65
2022/05/11 05:25:35;;;;;;;6.77;4.60;;;;;;;30.69;26.29;101578.38;5077255;28;20413;-64
2022/05/11 05:31:06;;;;;;;8.55;4.60;;;;;;;31.24;25.48;101580.94;5062312;28;20947;-64
2022/05/11 05:33:35;;;;;;;8.48;5.15;;;;;;;31.71;25.35;101584.88;5077002;28;20405;-65
2022/05/11 05:36:03;;;;;;;6.88;4.38;;;;;;;31.96;24.56;101585.66;5070760;28;20419;-64
2022/05/11 05:38:30;;;;;;;7.53;3.70;;;;;;;32.08;24.75;101583.34;5079016;28;20401;-64
2022/05/11 05:40:58;;;;;;;8.63;4.50;;;;;;;32.45;24.36;101583.66;5066819;28;20435;-63
2022/05/11 05:43:26;;;;;;;17.02;4.40;;;;;;;32.68;24.28;101585.53;5044522;28;20429;-63
2022/05/11 05:45:55;;;;;;;7.53;4.10;;;;;;;33.07;23.25;101589.81;5057972;28;20423;-63
2022/05/11 05:48:24;;;;;;;5.82;4.30;;;;;;;33.04;23.11;101586.88;5073026;28;20519;-65
2022/05/11 05:50:51;;;;;;;4.82;3.63;;;;;;;33.17;23.25;101586.13;5061510;28;20938;-60
2022/05/11 05:53:21;;;;;;;6.50;4.43;;;;;;;33.31;23.45;101586.97;5066686;28;20429;-60
2022/05/11 05:55:49;;;;;;;21.38;4.75;;;;;;;33.85;22.59;101584.56;5063926;28;21185;-64
2022/05/11 06:00:58;;;;;;;15.27;4.97;;;;;;;34.18;22.33;101583.63;5070946;28;20511;-65
2022/05/11 06:03:28;;;;;;;8.95;4.53;;;;;;;34.61;21.86;101584.00;5062756;28;20506;-63
2022/05/11 06:05:55;;;;;;;7.00;4.32;;;;;;;35.02;21.30;101580.25;5065394;28;20760;-62
2022/05/11 06:08:23;;;;;;;4.78;3.97;;;;;;;35.35;21.02;101581.91;5069707;28;20458;-61
2022/05/11 06:10:54;;;;;;;6.10;4.17;;;;;;;35.40;20.78;101574.31;5064952;28;20451;-65
2022/05/11 06:13:22;;;;;;;10.65;3.88;;;;;;;35.66;20.98;101578.28;5069097;28;20424;-65
2022/05/11 06:15:50;;;;;;;6.10;3.60;;;;;;;35.86;20.61;101582.41;5074489;28;20415;-61
2022/05/11 06:18:18;;;;;;;6.22;3.80;;;;;;;36.08;20.41;101571.25;5068617;28;20423;-63
2022/05/11 06:20:46;;;;;;;12.13;4.25;;;;;;;36.82;19.74;101577.75;5075577;28;20425;-63
2022/05/11 06:23:13;;;;;;;4.90;3.80;;;;;;;36.88;19.07;101575.63;5075990;28;20974;-59
2022/05/11 06:25:40;;;;;;;5.35;3.88;;;;;;;37.04;18.80;101573.16;5065625;28;20423;-61
2022/05/11 06:28:08;;;;;;;5.60;3.97;;;;;;;37.03;18.92;101574.31;5057365;28;20960;-60
2022/05/11 06:30:36;;;;;;;4.10;3.70;;;;;;;37.28;19.35;101575.41;5068442;28;20797;-62
2022/05/11 06:33:04;;;;;;;6.32;4.22;;;;;;;37.50;18.62;101574.31;5056872;28;20422;-62
2022/05/11 06:35:32;;;;;;;4.57;3.85;;;;;;;37.58;19.10;101575.41;5069005;28;20417;-65
2022/05/11 06:38:03;;;;;;;5.57;3.63;;;;;;;37.29;19.41;101574.25;5069294;28;20913;-61
2022/05/11 06:40:30;;;;;;;4.28;3.88;;;;;;;37.17;19.13;101566.66;5066049;28;20510;-64
2022/05/11 06:42:57;;;;;;;6.10;3.67;;;;;;;36.57;20.04;101568.34;5066661;28;20440;-65
2022/05/11 06:45:24;;;;;;;6.32;3.92;;;;;;;36.62;19.64;101568.19;5068768;28;20433;-66
2022/05/11 06:47:53;;;;;;;11.75;4.70;;;;;;;36.59;20.21;101570.78;5068235;28;20489;-64
2022/05/11 06:50:20;;;;;;;7.32;4.07;;;;;;;36.43;20.13;101564.94;5077301;28;20424;-66
2022/05/11 06:52:48;;;;;;;6.20;3.80;;;;;;;36.16;20.34;101564.94;5063869;28;20422;-62
2022/05/11 07:00:45;;;;;;;5.47;3.47;;;;;;;35.19;21.35;101562.19;5062758;28;20465;-65
2022/05/11 07:03:12;;;;;;;5.67;3.40;;;;;;;35.08;21.54;101563.56;5063476;28;20438;-61
2022/05/11 07:05:41;;;;;;;6.25;3.40;;;;;;;34.70;21.74;101563.97;5076958;28;20799;-61
2022/05/11 07:08:10;;;;;;;6.35;3.38;;;;;;;34.25;22.30;101561.97;5066953;28;20422;-63
2022/05/11 07:10:38;;;;;;;6.15;4.68;;;;;;;33.16;23.49;101567.19;5072581;28;20418;-62
2022/05/11 07:13:04;;;;;;;6.75;4.28;;;;;;;32.43;25.06;101564.75;5061150;28;20426;-63
2022/05/11 07:15:31;;;;;;;5.28;3.70;;;;;;;32.23;24.48;101554.88;5064946;28;20947;-60
2022/05/11 07:18:01;;;;;;;7.00;4.78;;;;;;;31.94;25.29;101566.75;5070757;28;20423;-62
2022/05/11 07:20:34;;;;;;;4.55;3.50;;;;;;;31.17;25.89;101558.56;5074309;28;20430;-61
2022/05/11 07:23:01;;;;;;;8.75;4.57;;;;;;;30.97;26.84;101560.41;5061772;28;20941;-63
2022/05/11 07:25:29;;;;;;;6.28;3.70;;;;;;;30.97;26.34;101560.41;5078080;28;20840;-61
2022/05/11 07:27:59;;;;;;;5.20;3.30;;;;;;;30.91;26.33;101563.44;5070789;28;20439;-62
2022/05/11 07:30:30;;;;;;;3.15;2.70;;;;;;;30.81;26.08;101558.84;5080985;28;20412;-60
2022/05/11 07:32:57;;;;;;;9.30;3.30;;;;;;;30.68;26.31;101563.06;5079627;28;20405;-65
2022/05/11 07:35:24;;;;;;;4.55;2.95;;;;;;;30.59;26.06;101562.03;5060392;28;20432;-60
2022/05/11 07:37:50;;;;;;;5.43;3.05;;;;;;;30.43;26.68;101564.88;5076823;28;20408;-59
2022/05/11 07:40:19;;;;;;;5.72;3.47;;;;;;;30.34;26.48;101563.00;5075494;28;20436;-61
2022/05/11 07:42:48;;;;;;;3.33;3.03;;;;;;;30.03;27.19;101561.22;5070697;28;20439;-60
2022/05/11 07:45:16;;;;;;;3.75;2.80;;;;;;;29.69;27.80;101566.53;5071747;28;20418;-59
2022/05/11 07:47:44;;;;;;;6.95;3.20;;;;;;;29.76;28.12;101572.56;5078352;28;20434;-62
2022/05/11 07:50:14;;;;;;;3.55;2.92;;;;;;;29.58;28.32;101567.66;5070908;28;20425;-64
2022/05/11 07:52:41;;;;;;;7.18;3.00;;;;;;;29.64;28.38;101569.28;5079689;28;20973;-62
2022/05/11 07:55:08;;;;;;;8.83;2.97;;;;;;;29.81;27.99;101567.06;5077083;28;20432;-60
2022/05/11 08:00:22;;;;;;;5.30;2.90;;;;;;;29.59;27.92;101567.41;5076945;28;20552;-60
2022/05/11 08:02:49;;;;;;;7.70;3.50;;;;;;;29.60;28.19;101565.47;5078511;28;20432;-61
2022/05/11 08:05:18;;;;;;;3.90;2.70;;;;;;;29.26;28.41;101569.66;5065156;28;20427;-61
2022/05/11 08:07:47;;;;;;;3.97;2.55;;;;;;;28.78;28.35;101569.91;5078752;28;20413;-60
2022/05/11 08:10:17;;;;;;;3.60;2.67;;;;;;;28.76;28.05;101571.28;5069733;28;20430;-60
2022/05/11 08:12:44;;;;;;;4.38;2.50;;;;;;;29.06;27.59;101564.16;5064996;28;20422;-59
2022/05/11 08:15:12;;;;;;;6.55;2.60;;;;;;;29.15;27.04;101568.00;5056250;28;20424;-62
2022/05/11 08:17:42;;;;;;;7.75;3.40;;;;;;;29.13;26.95;101567.44;5064998;28;20506;-62
2022/05/11 08:20:14;;;;;;;8.20;2.70;;;;;;;29.08;27.34;101568.28;5064466;28;20415;-60
2022/05/11 08:22:42;;;;;;;5.43;3.00;;;;;;;29.15;26.58;101566.13;5075628;28;20444;-60
2022/05/11 08:25:10;;;;;;;2.35;1.90;;;;;;;29.27;25.98;101565.81;5063724;28;20419;-64
2022/05/11 08:27:38;;;;;;;3.45;2.33;;;;;;;29.42;26.13;101561.41;5066144;28;20441;-63
2022/05/11 08:35:37;;;;;;;4.22;2.10;;;;;;;29.49;25.77;101554.56;5064574;28;20416;-59
2022/05/11 08:38:04;;;;;;;2.97;1.90;;;;;;;29.34;25.98;101562.81;5068401;28;20819;-60
2022/05/11 08:40:42;;;;;;;4.97;2.15;;;;;;;29.45;25.34;101552.69;5070783;28;20431;-64
2022/05/11 08:43:12;;;;;;;2.67;1.80;;;;;;;29.50;25.75;101558.94;5055685;28;20813;-61
2022/05/11 08:45:46;;;;;;;2.88;1.90;;;;;;;29.36;25.69;101561.41;5067387;28;20427;-64
2022/05/11 08:48:23;;;;;;;2.83;1.90;;;;;;;29.41;25.57;101557.06;5071606;28;20427;-60
2022/05/11 08:50:50;;;;;;;3.33;1.97;;;;;;;29.45;26.12;101556.22;5080081;28;20428;-60
2022/05/11 08:53:31;;;;;;;5.20;2.20;;;;;;;29.53;26.17;101558.41;5073061;28;20484;-59
2022/05/11 08:56:02;;;;;;;4.50;2.10;;;;;;;29.44;26.44;101556.50;5069908;28;20430;-62
2022/05/11 08:58:34;;;;;;;2.55;2.00;;;;;;;29.53;26.35;101552.09;5074475;28;20431;-62
2022/05/11 09:01:02;;;;;;;3.08;2.17;;;;;;;29.62;25.62;101555.06;5068239;28;20419;-62
2022/05/11 09:03:33;;;;;;;3.67;2.30;;;;;;;29.71;25.79;101558.88;5072992;28;20436;-62
2022/05/11 09:06:01;;;;;;;3.17;2.33;;;;;;;29.81;25.72;101549.88;5078971;28;20411;-62
2022/05/11 09:08:30;;;;;;;3.10;2.30;;;;;;;29.64;25.32;101547.41;5063908;28;20422;-61
2022/05/11 09:10:58;;;;;;;1.80;1.60;;;;;;;29.53;24.90;101552.94;5069178;28;20971;-64
2022/05/11 09:13:27;;;;;;;3.90;2.00;;;;;;;29.01;25.63;101550.50;5078772;28;20419;-64
2022/05/11 09:16:00;;;;;;;2.53;1.73;;;;;;;28.88;25.67;101549.16;5063884;28;20431;-63
2022/05/11 09:18:39;;;;;;;4.80;2.47;;;;;;;29.18;25.17;101548.34;5067792;28;20976;-63
2022/05/11 09:21:19;;;;;;;2.42;1.88;;;;;;;29.23;23.98;101545.63;5061632;28;20487;-61
2022/05/11 09:24:00;;;;;;;2.90;1.90;;;;;;;29.29;24.64;101543.69;5070047;28;20436;-60
2022/05/11 09:26:32;;;;;;;3.53;1.80;;;;;;;29.21;24.84;101542.34;5059467;28;20432;-61
2022/05/11 09:29:16;;;;;;;3.43;2.20;;;;;;;29.35;25.28;101542.56;5072473;28;20416;-63
2022/05/11 09:31:45;;;;;;;2.42;2.08;;;;;;;29.42;24.50;101542.28;5055475;28;20506;-64
2022/05/11 09:34:23;;;;;;;3.03;1.88;;;;;;;29.21;25.07;101536.06;5080326;28;20424;-62
2022/05/11 09:36:56;;;;;;;2.78;1.60;;;;;;;28.93;25.23;101547.25;5070133;28;20421;-62
2022/05/11 09:39:27;;;;;;;4.10;1.92;;;;;;;28.88;25.79;101539.09;5071927;28;20425;-63
2022/05/11 09:41:59;;;;;;;4.63;3.00;;;;;;;29.13;25.20;101534.66;5062957;28;20422;-62
2022/05/11 09:44:28;;;;;;;4.00;1.90;;;;;;;29.26;24.10;101531.44;5062283;28;20517;-64
2022/05/11 09:46:56;;;;;;;3.47;2.75;;;;;;;28.99;24.55;101526.22;5063340;28;20422;-63
2022/05/11 09:49:28;;;;;;;2.80;1.70;;;;;;;29.03;24.24;101530.06;5062357;28;21250;-63
2022/05/11 09:51:57;;;;;;;1.48;1.38;;;;;;;28.84;23.86;101532.50;5064007;28;20497;-64
2022/05/11 09:54:32;;;;;;;2.60;1.40;;;;;;;28.80;23.08;101536.88;5062785;28;20430;-62
2022/05/11 09:57:02;;;;;;;1.30;1.20;;;;;;;28.87;23.40;101531.16;5061862;28;20426;-63
2022/05/11 09:59:32;;;;;;;2.63;1.40;;;;;;;28.99;23.47;101528.94;5062878;28;20449;-64
2022/05/11 10:02:03;;;;;;;3.25;2.80;;;;;;;29.07;24.12;101525.69;5063361;28;20496;-64
2022/05/11 10:04:38;;;;;;;2.83;1.60;;;;;;;29.14;23.96;101517.22;5062124;28;20955;-63
2022/05/11 10:07:10;;;;;;;2.67;1.52;;;;;;;28.83;24.27;101519.13;5061139;28;20928;-61
2022/05/11 10:09:43;;;;;;;2.30;1.80;;;;;;;29.06;24.25;101513.09;5060561;28;20519;-63
2022/05/11 10:12:15;;;;;;;1.85;1.33;;;;;;;29.16;24.11;101507.66;5069411;28;20407;-64
2022/05/11 10:23:15;;;;;;;1.60;1.20;;;;;;;29.08;22.36;101496.47;5080208;28;20874;-60
2022/05/11 10:25:43;;;;;;;1.60;1.50;;;;;;;29.25;22.12;101501.66;5069877;28;20457;-62
2022/05/11 10:28:24;;;;;;;3.95;1.63;;;;;;;29.32;21.79;101499.47;5078289;28;20436;-62
2022/05/11 10:30:59;;;;;;;1.80;1.40;;;;;;;29.28;21.83;101501.09;5079244;28;20916;-62
2022/05/11 10:33:46;;;;;;;2.28;1.52;;;;;;;29.45;22.13;101495.31;5066165;28;20433;-58
2022/05/11 10:36:24;;;;;;;2.55;1.63;;;;;;;29.54;21.33;101478.06;5078144;28;20475;-63
2022/05/11 10:39:03;;;;;;;2.30;1.70;;;;;;;29.45;21.46;101487.94;5073411;28;20421;-61
2022/05/11 10:41:34;;;;;;;3.67;1.85;;;;;;;29.45;21.63;101484.38;5080897;28;20417;-62
2022/05/11 10:44:07;;;;;;;3.90;1.80;;;;;;;29.52;21.52;101490.38;5071609;28;20437;-62
2022/05/11 10:46:39;;;;;;;4.30;1.63;;;;;;;29.58;21.63;101489.25;5066212;28;20418;-63
2022/05/11 10:49:29;;;;;;;5.43;4.50;;;;;;;29.60;22.61;101488.97;5074872;28;20502;-63
2022/05/11 10:52:14;;;;;;;2.40;1.80;;;;;;;29.44;23.87;101497.25;5085213;28;20485;-61
2022/05/11 10:54:48;;;;;;;3.90;1.50;;;;;;;29.44;21.00;101485.47;5059923;28;20487;-64
2022/05/11 10:57:24;;;;;;;4.97;1.67;;;;;;;29.52;20.69;101480.25;5069271;28;20426;-61
2022/05/11 11:00:07;;;;;;;5.17;1.80;;;;;;;29.63;20.37;101472.84;5070530;28;20422;-61
2022/05/11 11:03:25;;;;;;;8.10;1.92;;;;;;;29.67;19.99;101473.09;5058009;28;20431;-62
2022/05/11 11:09:06;;;;;;;5.03;1.77;;;;;;;29.79;19.52;101470.06;5071830;28;20607;-61
2022/05/11 11:11:38;;;;;;;4.25;1.75;;;;;;;29.83;19.61;101461.00;5083281;28;20807;-63
2022/05/11 11:14:09;;;;;;;2.77;1.80;;;;;;;29.88;20.09;101462.91;5065390;28;20425;-61
2022/05/11 11:16:39;;;;;;;4.35;1.95;;;;;;;29.82;19.99;101444.88;5064250;28;20505;-63
2022/05/11 11:19:08;;;;;;;2.28;1.83;;;;;;;29.79;20.81;101459.94;5074685;28;20421;-61
2022/05/11 11:21:40;;;;;;;8.10;1.88;;;;;;;29.85;20.16;101458.00;5078562;28;20417;-63
2022/05/11 11:24:23;;;;;;;4.05;1.75;;;;;;;29.76;20.35;101454.22;5078112;28;20432;-63
2022/05/11 11:26:52;;;;;;;3.28;1.85;;;;;;;29.73;19.79;101466.53;5062764;28;20415;-63
2022/05/11 11:29:25;;;;;;;4.88;1.70;;;;;;;29.74;20.29;101449.84;5073419;28;20418;-62
2022/05/11 11:32:17;;;;;;;3.40;1.90;;;;;;;29.63;20.72;101461.91;5067509;28;20438;-62
2022/05/11 11:34:47;;;;;;;2.40;1.80;;;;;;;29.66;20.72;101457.81;5078395;28;20423;-60
2022/05/11 11:37:50;;;;;;;5.88;1.88;;;;;;;29.57;20.80;101454.84;5064208;28;20424;-63
2022/05/11 11:40:32;;;;;;;5.50;2.30;;;;;;;29.60;20.40;101453.44;5073579;28;20416;-62
2022/05/11 11:43:38;;;;;;;7.10;1.75;;;;;;;29.62;19.94;101448.53;5075650;28;21615;-62
2022/05/11 11:46:04;;;;;;;2.90;1.60;;;;;;;29.65;20.62;101447.97;5057612;28;20404;-60
2022/05/11 11:48:32;;;;;;;4.25;2.00;;;;;;;29.51;21.35;101451.31;5069135;28;20418;-62
2022/05/11 11:51:01;;;;;;;7.30;2.20;;;;;;;29.43;20.97;101449.16;5066025;28;20498;-61
2022/05/11 11:53:37;;;;;;;5.83;2.00;;;;;;;29.44;21.02;101445.34;5080889;28;20420;-63
2022/05/11 11:56:37;;;;;;;4.47;1.80;;;;;;;29.50;20.71;101443.41;5075750;28;21018;-63
2022/05/11 11:59:06;;;;;;;3.93;1.87;;;;;;;29.50;21.03;101438.75;5063720;28;20801;-63
2022/05/11 12:01:37;;;;;;;5.95;1.77;;;;;;;29.50;21.56;101433.28;5078663;28;20421;-62
2022/05/11 12:04:12;;;;;;;4.22;1.83;;;;;;;29.49;21.62;101430.81;5064586;28;20876;-61
2022/05/11 12:15:11;;;;;;;4.07;1.80;;;;;;;29.39;21.42;101418.03;5069954;28;20441;-60
2022/05/11 12:17:40;;;;;;;4.05;1.70;;;;;;;29.46;21.33;101415.00;5066315;28;20422;-61
2022/05/11 12:20:11;;;;;;;3.97;2.00;;;;;;;29.46;21.21;101428.66;5061838;28;20892;-60
2022/05/11 12:22:43;;;;;;;4.35;2.40;;;;;;;29.49;22.08;101417.16;5059340;28;20418;-63
2022/05/11 12:25:26;;;;;;;7.50;1.83;;;;;;;29.40;20.75;101391.53;5064157;28;20429;-63
2022/05/11 12:27:56;;;;;;;4.82;1.80;;;;;;;29.24;20.95;101407.97;5073684;28;20531;-61
2022/05/11 12:30:26;;;;;;;2.45;1.60;;;;;;;29.29;20.62;101404.44;5081822;28;20413;-63